Time;durP1;ratioP1;P1;durP2;ratioP2;P2;SDS_P1;SDS_P2;PMS_P1;PMS_P2;Temp;Humidity;BMP_temperature;BMP_pressure;BME280_temperature;BME280_humidity;BME280_pressure;Samples;Min_cycle;Max_cycle;Signal;HPM_P1;HPM_P2
2022/12/08 00:01:42;;;;;;;218.30;206.83;;;2.10;99.90;;;;;;5051731;28;20442;-63
2022/12/08 00:04:09;;;;;;;204.37;193.57;;;2.10;99.90;;;;;;5050522;28;20381;-62
2022/12/08 00:09:24;;;;;;;202.27;191.68;;;2.10;99.90;;;;;;5053247;28;20451;-64
2022/12/08 00:12:01;;;;;;;202.30;191.40;;;2.00;99.90;;;;;;5052426;28;20386;-63
2022/12/08 00:14:33;;;;;;;211.27;199.80;;;2.00;99.90;;;;;;5049208;28;20452;-61
2022/12/08 00:16:59;;;;;;;210.32;198.85;;;2.00;99.90;;;;;;5046646;28;20400;-60
2022/12/08 00:19:26;;;;;;;204.90;193.90;;;2.00;99.90;;;;;;5046846;28;20401;-62
2022/12/08 00:21:52;;;;;;;187.15;177.00;;;2.00;99.90;;;;;;5045396;28;20468;-62
2022/12/08 00:24:19;;;;;;;182.50;172.60;;;2.10;99.90;;;;;;5046765;28;20469;-61
2022/12/08 00:26:45;;;;;;;198.25;187.50;;;2.00;99.90;;;;;;5048898;28;20388;-63
2022/12/08 00:29:12;;;;;;;204.15;193.13;;;2.10;99.90;;;;;;5050320;28;20811;-62
2022/12/08 00:31:37;;;;;;;224.95;213.07;;;2.20;99.90;;;;;;5050598;28;20389;-63
2022/12/08 00:34:03;;;;;;;237.50;225.20;;;2.30;99.90;;;;;;5051932;28;20665;-63
2022/12/08 00:36:29;;;;;;;246.27;233.38;;;2.30;99.90;;;;;;5053113;28;20438;-62
2022/12/08 00:38:55;;;;;;;215.77;204.48;;;2.30;99.90;;;;;;5052827;28;20409;-61
2022/12/08 00:44:08;;;;;;;220.60;208.98;;;2.30;99.90;;;;;;5053798;28;20489;-61
2022/12/08 00:46:33;;;;;;;218.53;207.10;;;2.40;99.90;;;;;;5053359;28;20380;-62
2022/12/08 00:48:59;;;;;;;244.25;231.85;;;2.50;99.90;;;;;;5052063;28;20393;-61
2022/12/08 00:51:24;;;;;;;236.40;224.00;;;2.50;99.90;;;;;;5053503;28;20757;-61
2022/12/08 00:53:50;;;;;;;219.97;208.57;;;2.60;99.90;;;;;;5052416;28;20402;-61
2022/12/08 00:56:15;;;;;;;223.30;211.82;;;2.60;99.90;;;;;;5050253;28;20620;-61
2022/12/08 00:58:41;;;;;;;199.90;189.50;;;2.60;99.90;;;;;;5050075;28;20389;-61
2022/12/08 01:01:11;;;;;;;205.93;195.27;;;2.70;99.90;;;;;;5049800;28;20415;-60
2022/12/08 01:03:37;;;;;;;214.63;203.83;;;2.70;99.90;;;;;;5047476;28;20386;-61
2022/12/08 01:06:04;;;;;;;211.40;200.57;;;2.80;99.90;;;;;;5048585;28;20729;-62
2022/12/08 01:08:29;;;;;;;212.85;202.23;;;2.80;99.90;;;;;;5046713;28;20699;-62
2022/12/08 01:10:55;;;;;;;222.70;211.57;;;2.80;99.90;;;;;;5048567;28;20777;-62
2022/12/08 01:13:21;;;;;;;216.90;206.02;;;2.90;99.90;;;;;;5051095;28;20420;-61
2022/12/08 01:15:46;;;;;;;205.60;195.50;;;3.00;99.90;;;;;;5048719;28;20796;-62
2022/12/08 01:18:12;;;;;;;233.45;222.10;;;3.00;99.90;;;;;;5049163;28;20548;-61
2022/12/08 01:20:37;;;;;;;218.37;207.53;;;3.00;99.90;;;;;;5050159;28;20835;-62
2022/12/08 01:23:03;;;;;;;214.03;203.37;;;3.00;99.90;;;;;;5051620;28;20393;-62
2022/12/08 01:25:29;;;;;;;199.97;190.07;;;3.00;99.90;;;;;;5053540;28;20459;-62
2022/12/08 01:27:54;;;;;;;191.98;182.27;;;2.90;99.90;;;;;;5052442;28;20401;-62
2022/12/08 01:30:20;;;;;;;200.07;190.30;;;3.00;99.90;;;;;;5055193;28;20425;-62
2022/12/08 01:32:46;;;;;;;212.95;202.23;;;3.00;99.90;;;;;;5054992;28;20710;-62
2022/12/08 01:35:13;;;;;;;206.30;195.98;;;3.00;99.90;;;;;;5055262;28;20828;-61
2022/12/08 01:37:38;;;;;;;187.10;177.90;;;3.00;99.90;;;;;;5053191;28;20529;-61
2022/12/08 01:40:05;;;;;;;185.63;176.32;;;3.00;99.90;;;;;;5053152;28;20432;-61
2022/12/08 01:42:33;;;;;;;200.05;190.10;;;3.00;99.90;;;;;;5053186;28;20390;-61
2022/12/08 01:45:01;;;;;;;205.05;194.73;;;2.90;99.90;;;;;;5053211;28;20419;-61
2022/12/08 01:47:37;;;;;;;196.63;186.60;;;2.90;99.90;;;;;;5051743;28;20421;-61
2022/12/08 01:50:05;;;;;;;207.93;197.52;;;3.00;99.90;;;;;;5049514;28;20385;-62
2022/12/08 01:52:44;;;;;;;213.88;203.23;;;3.00;99.90;;;;;;5049246;28;20390;-61
2022/12/08 01:55:21;;;;;;;213.20;202.40;;;3.00;99.90;;;;;;5049573;28;20631;-61
2022/12/08 01:57:50;;;;;;;218.10;207.18;;;3.00;99.90;;;;;;5048675;28;20420;-60
2022/12/08 02:00:18;;;;;;;224.90;213.90;;;3.10;99.90;;;;;;5050281;28;20405;-62
2022/12/08 02:03:06;;;;;;;232.23;220.60;;;3.00;99.90;;;;;;5048149;28;20470;-62
2022/12/08 02:05:34;;;;;;;223.52;212.40;;;3.00;99.90;;;;;;5049161;28;20374;-60
2022/12/08 02:08:05;;;;;;;215.15;204.38;;;3.00;99.90;;;;;;5047996;28;20370;-61
2022/12/08 02:10:34;;;;;;;223.05;211.93;;;2.90;99.90;;;;;;5048951;28;20615;-63
2022/12/08 02:13:02;;;;;;;209.20;198.82;;;3.00;99.90;;;;;;5051792;28;20773;-62
2022/12/08 02:16:06;;;;;;;203.90;193.80;;;2.90;99.90;;;;;;5053332;28;20685;-62
2022/12/08 02:18:54;;;;;;;200.13;190.20;;;2.70;99.90;;;;;;5052576;28;20392;-63
2022/12/08 02:21:27;;;;;;;230.48;218.88;;;2.50;99.90;;;;;;5053550;28;20451;-62
2022/12/08 02:24:03;;;;;;;240.25;228.23;;;2.40;99.90;;;;;;5054648;28;20397;-63
2022/12/08 02:26:50;;;;;;;206.63;196.02;;;2.30;99.90;;;;;;5053128;28;20377;-62
2022/12/08 02:29:48;;;;;;;210.10;199.65;;;2.30;99.90;;;;;;5054559;28;20400;-62
2022/12/08 02:32:28;;;;;;;193.15;183.55;;;2.40;99.90;;;;;;5030511;28;20381;-62
2022/12/08 02:35:03;;;;;;;196.85;187.05;;;2.50;99.90;;;;;;5051870;28;20381;-62
2022/12/08 02:37:36;;;;;;;188.45;179.10;;;2.50;99.90;;;;;;5051397;28;20720;-65
2022/12/08 02:40:28;;;;;;;181.63;172.35;;;2.50;99.90;;;;;;5050334;28;20444;-61
2022/12/08 02:43:02;;;;;;;172.70;163.85;;;2.50;99.90;;;;;;5049986;28;20432;-62
2022/12/08 02:45:58;;;;;;;187.18;177.65;;;2.60;99.90;;;;;;5049048;28;20692;-62
2022/12/08 02:48:27;;;;;;;170.38;161.75;;;2.60;99.90;;;;;;5046481;28;20386;-62
2022/12/08 02:50:53;;;;;;;172.82;164.00;;;2.70;99.90;;;;;;5049145;28;20388;-63
2022/12/08 02:53:19;;;;;;;181.27;172.03;;;2.70;99.90;;;;;;5050859;28;21007;-62
2022/12/08 02:55:52;;;;;;;191.95;182.13;;;2.60;99.90;;;;;;5052645;28;20685;-61
2022/12/08 02:58:43;;;;;;;188.15;178.77;;;2.60;99.90;;;;;;5051507;28;20405;-62
2022/12/08 03:01:45;;;;;;;209.18;198.68;;;2.70;99.90;;;;;;5051860;28;20421;-62
2022/12/08 03:04:35;;;;;;;183.40;174.15;;;2.70;99.90;;;;;;5051922;28;20654;-62
2022/12/08 03:07:08;;;;;;;202.82;192.48;;;2.70;99.90;;;;;;5051897;28;20381;-62
2022/12/08 03:09:54;;;;;;;197.35;187.48;;;2.70;99.90;;;;;;5052556;28;20397;-62
2022/12/08 03:12:27;;;;;;;200.35;190.35;;;2.80;99.90;;;;;;5051706;28;20412;-63
2022/12/08 03:14:58;;;;;;;192.70;183.07;;;2.80;99.90;;;;;;5052094;28;20389;-63
2022/12/08 03:17:27;;;;;;;151.00;143.30;;;2.90;99.90;;;;;;5050435;28;20863;-61
2022/12/08 03:19:55;;;;;;;145.75;138.25;;;2.90;99.90;;;;;;5052144;28;20572;-62
2022/12/08 03:22:25;;;;;;;147.38;139.98;;;3.00;99.90;;;;;;5051990;28;20370;-62
2022/12/08 03:24:52;;;;;;;129.38;122.93;;;3.00;99.90;;;;;;5052943;28;20404;-62
2022/12/08 03:27:25;;;;;;;133.98;127.22;;;3.00;99.90;;;;;;5052630;28;20385;-62
2022/12/08 03:29:52;;;;;;;128.57;122.07;;;3.10;99.90;;;;;;5052199;28;20389;-62
2022/12/08 03:32:25;;;;;;;130.93;124.18;;;3.10;99.90;;;;;;5052533;28;20768;-61
2022/12/08 03:34:53;;;;;;;126.53;120.20;;;3.00;99.90;;;;;;5052461;28;20432;-61
2022/12/08 03:37:19;;;;;;;124.82;118.60;;;3.00;99.90;;;;;;5053240;28;20665;-62
2022/12/08 03:39:45;;;;;;;125.90;119.70;;;3.00;99.90;;;;;;5052154;28;20481;-63
2022/12/08 03:42:10;;;;;;;117.70;111.95;;;3.00;99.90;;;;;;5051963;28;20393;-62
2022/12/08 03:44:36;;;;;;;121.70;115.70;;;2.90;99.90;;;;;;5051849;28;20738;-62
2022/12/08 03:47:01;;;;;;;119.87;114.03;;;2.90;99.90;;;;;;5051229;28;20397;-61
2022/12/08 03:49:27;;;;;;;126.97;120.60;;;3.00;99.90;;;;;;5052059;28;20397;-63
2022/12/08 03:51:53;;;;;;;118.37;112.43;;;3.10;99.90;;;;;;5051533;28;20396;-62
2022/12/08 03:54:18;;;;;;;120.80;114.88;;;3.00;99.90;;;;;;5050979;28;20847;-63
2022/12/08 03:56:44;;;;;;;126.03;119.73;;;3.10;99.90;;;;;;5051037;28;20424;-62
2022/12/08 03:59:10;;;;;;;125.97;119.77;;;3.10;99.90;;;;;;5052211;28;20409;-62
2022/12/08 04:01:35;;;;;;;122.00;116.05;;;3.10;99.90;;;;;;5054189;28;20501;-62
2022/12/08 04:04:01;;;;;;;119.18;113.40;;;3.10;99.90;;;;;;5055394;28;20781;-62
2022/12/08 04:06:26;;;;;;;119.93;113.95;;;3.10;99.90;;;;;;5055602;28;20396;-62
2022/12/08 04:08:52;;;;;;;124.23;118.23;;;3.10;99.90;;;;;;5054977;28;20408;-62
2022/12/08 04:11:18;;;;;;;126.43;120.23;;;3.10;99.90;;;;;;5055171;28;20393;-62
2022/12/08 04:13:44;;;;;;;126.80;120.73;;;3.00;99.90;;;;;;5054303;28;20839;-62
2022/12/08 04:16:19;;;;;;;127.78;121.57;;;3.00;99.90;;;;;;5053109;28;20403;-62
2022/12/08 04:18:46;;;;;;;125.70;119.60;;;3.00;99.90;;;;;;5051544;28;20385;-64
2022/12/08 04:21:11;;;;;;;123.97;117.83;;;3.00;99.90;;;;;;5051716;28;20839;-63
2022/12/08 04:23:37;;;;;;;122.87;116.93;;;2.90;99.90;;;;;;5052933;28;20381;-62
2022/12/08 04:26:03;;;;;;;122.37;116.43;;;3.00;99.90;;;;;;5053226;28;20385;-62
2022/12/08 04:28:28;;;;;;;126.43;120.33;;;3.00;99.90;;;;;;5052418;28;20393;-62
2022/12/08 04:30:54;;;;;;;120.37;114.63;;;3.00;99.90;;;;;;5052859;28;20388;-63
2022/12/08 04:33:20;;;;;;;121.68;115.88;;;3.00;99.90;;;;;;5053116;28;20385;-61
2022/12/08 04:35:46;;;;;;;116.73;111.13;;;3.00;99.90;;;;;;5053325;28;20400;-62
2022/12/08 04:38:12;;;;;;;122.90;117.03;;;2.90;99.90;;;;;;5052604;28;20408;-63
2022/12/08 04:41:06;;;;;;;122.17;116.30;;;3.00;99.90;;;;;;5052125;28;20486;-62
2022/12/08 04:43:31;;;;;;;126.10;120.15;;;2.90;99.90;;;;;;5051835;28;20381;-63
2022/12/08 04:45:57;;;;;;;123.50;117.70;;;2.90;99.90;;;;;;5051446;28;20396;-60
2022/12/08 04:48:23;;;;;;;113.20;107.82;;;2.90;99.90;;;;;;5051562;28;20385;-62
2022/12/08 04:50:48;;;;;;;119.15;113.45;;;2.90;99.90;;;;;;5051187;28;20400;-62
2022/12/08 04:53:14;;;;;;;121.60;115.80;;;3.00;99.90;;;;;;5050197;28;20385;-62
2022/12/08 04:55:42;;;;;;;119.10;113.40;;;2.90;99.90;;;;;;5050449;28;20429;-62
2022/12/08 04:58:12;;;;;;;121.53;115.72;;;2.90;99.90;;;;;;5051433;28;20389;-61
2022/12/08 05:00:38;;;;;;;122.53;116.68;;;2.90;99.90;;;;;;5051125;28;20932;-62
2022/12/08 05:03:04;;;;;;;115.88;110.43;;;2.90;99.90;;;;;;5052244;28;20439;-61
2022/12/08 05:05:29;;;;;;;125.97;120.03;;;2.80;99.90;;;;;;5052249;28;20784;-62
2022/12/08 05:07:55;;;;;;;119.30;113.67;;;2.80;99.90;;;;;;5052640;28;20392;-62
2022/12/08 05:10:21;;;;;;;118.28;112.70;;;2.90;99.90;;;;;;5052231;28;20413;-62
2022/12/08 05:12:46;;;;;;;122.90;117.03;;;2.90;99.90;;;;;;5051474;28;20385;-63
2022/12/08 05:15:12;;;;;;;128.23;122.18;;;2.90;99.90;;;;;;5050737;28;20471;-62
2022/12/08 05:17:38;;;;;;;122.40;116.47;;;2.90;99.90;;;;;;5048298;28;20809;-62
2022/12/08 05:20:04;;;;;;;120.07;114.37;;;2.90;99.90;;;;;;5048197;28;21260;-62
2022/12/08 05:22:30;;;;;;;125.20;119.30;;;2.90;99.90;;;;;;5047195;28;20615;-63
2022/12/08 05:24:55;;;;;;;122.70;116.90;;;2.90;99.90;;;;;;5047103;28;20465;-63
2022/12/08 05:27:21;;;;;;;121.50;115.70;;;2.80;99.90;;;;;;5047799;28;20389;-62
2022/12/08 05:29:47;;;;;;;122.33;116.57;;;2.80;99.90;;;;;;5049498;28;20809;-62
2022/12/08 05:32:13;;;;;;;124.70;118.77;;;2.90;99.90;;;;;;5049288;28;20458;-63
2022/12/08 05:34:38;;;;;;;123.00;117.10;;;2.80;99.90;;;;;;5051199;28;20404;-62
2022/12/08 05:37:04;;;;;;;121.47;115.73;;;2.70;99.90;;;;;;5050773;28;20651;-62
2022/12/08 05:39:30;;;;;;;116.88;111.30;;;2.80;99.90;;;;;;5049558;28;20682;-63
2022/12/08 05:41:55;;;;;;;115.90;110.35;;;2.80;99.90;;;;;;5047448;28;20788;-62
2022/12/08 05:44:21;;;;;;;117.05;111.45;;;2.70;99.90;;;;;;5047993;28;20381;-62
2022/12/08 05:46:47;;;;;;;123.93;118.10;;;2.80;99.90;;;;;;5050907;28;20385;-62
2022/12/08 05:49:12;;;;;;;121.97;116.18;;;2.80;99.90;;;;;;5050089;28;20424;-62
2022/12/08 05:51:38;;;;;;;128.07;122.00;;;2.90;99.90;;;;;;5050842;28;20390;-62
2022/12/08 05:54:03;;;;;;;122.90;117.10;;;3.00;99.90;;;;;;5050222;28;20427;-63
2022/12/08 05:56:29;;;;;;;118.35;112.72;;;3.10;99.90;;;;;;5049302;28;20393;-62
2022/12/08 05:58:54;;;;;;;137.00;130.57;;;3.00;99.90;;;;;;5049756;28;20480;-62
2022/12/08 06:01:26;;;;;;;141.13;134.47;;;3.10;99.90;;;;;;5048578;28;20385;-62
2022/12/08 06:03:52;;;;;;;144.77;137.98;;;3.00;99.90;;;;;;5050089;28;20825;-63
2022/12/08 06:06:18;;;;;;;161.80;154.18;;;3.10;99.90;;;;;;5047667;28;20752;-62
2022/12/08 06:08:44;;;;;;;148.02;140.95;;;3.00;99.90;;;;;;5046986;28;20480;-62
2022/12/08 06:11:16;;;;;;;158.52;151.13;;;3.00;99.90;;;;;;5045050;28;20408;-61
2022/12/08 06:13:41;;;;;;;143.68;136.98;;;3.00;99.90;;;;;;5045942;28;20665;-62
2022/12/08 06:16:07;;;;;;;143.73;136.93;;;3.00;99.90;;;;;;5043613;28;20395;-62
2022/12/08 06:18:32;;;;;;;163.37;155.73;;;3.10;99.90;;;;;;5043267;28;20418;-61
2022/12/08 06:21:06;;;;;;;161.52;153.93;;;3.00;99.90;;;;;;5044981;28;20728;-62
2022/12/08 06:23:33;;;;;;;161.60;153.95;;;3.00;99.90;;;;;;5042787;28;20611;-63
2022/12/08 06:26:07;;;;;;;151.70;144.60;;;2.90;99.90;;;;;;5043560;28;20393;-62
2022/12/08 06:28:34;;;;;;;119.07;113.47;;;2.80;99.90;;;;;;5041977;28;20675;-62
2022/12/08 06:31:15;;;;;;;125.03;119.13;;;2.80;99.90;;;;;;5042005;28;20719;-62
2022/12/08 06:33:42;;;;;;;121.18;115.45;;;2.90;99.90;;;;;;5039790;28;20520;-62
2022/12/08 06:36:09;;;;;;;130.20;124.05;;;2.90;99.90;;;;;;5042727;28;20447;-63
2022/12/08 06:38:34;;;;;;;124.45;118.45;;;3.00;99.90;;;;;;5042072;28;20722;-63
2022/12/08 06:41:00;;;;;;;129.32;123.28;;;3.00;99.90;;;;;;5043268;28;20451;-62
2022/12/08 06:43:26;;;;;;;138.53;132.03;;;3.00;99.90;;;;;;5045171;28;20734;-63
2022/12/08 06:45:52;;;;;;;125.72;119.82;;;2.90;99.90;;;;;;5042697;28;20657;-63
2022/12/08 06:48:19;;;;;;;130.57;124.50;;;2.90;99.90;;;;;;5042010;28;20455;-62
2022/12/08 06:50:44;;;;;;;131.27;125.03;;;2.90;99.90;;;;;;5042016;28;20480;-64
2022/12/08 06:53:11;;;;;;;135.17;128.73;;;2.80;99.90;;;;;;5038378;28;20537;-62
2022/12/08 06:55:41;;;;;;;119.70;114.03;;;2.80;99.90;;;;;;5036500;28;20487;-63
2022/12/08 06:58:07;;;;;;;117.20;111.70;;;2.80;99.90;;;;;;5037622;28;20692;-63
2022/12/08 07:00:32;;;;;;;117.43;111.83;;;2.80;99.90;;;;;;5037569;28;20427;-62
2022/12/08 07:02:58;;;;;;;125.30;119.40;;;2.80;99.90;;;;;;5038972;28;20668;-63
2022/12/08 07:05:23;;;;;;;129.32;123.13;;;2.80;99.90;;;;;;5039998;28;20669;-62
2022/12/08 07:07:49;;;;;;;134.48;128.05;;;2.90;99.90;;;;;;5038196;28;20439;-63
2022/12/08 07:10:15;;;;;;;137.13;130.73;;;2.90;99.90;;;;;;5038751;28;20400;-63
2022/12/08 07:12:40;;;;;;;151.23;144.07;;;2.90;99.90;;;;;;5038012;28;20424;-63
2022/12/08 07:15:06;;;;;;;165.47;157.67;;;2.80;99.90;;;;;;5037419;28;20381;-63
2022/12/08 07:17:32;;;;;;;161.85;154.10;;;2.70;99.90;;;;;;5036311;28;20868;-62
2022/12/08 07:19:57;;;;;;;144.13;137.23;;;2.70;99.90;;;;;;5035336;28;20409;-62
2022/12/08 07:22:23;;;;;;;143.40;136.50;;;2.60;99.90;;;;;;5034891;28;20392;-63
2022/12/08 07:24:49;;;;;;;148.80;141.70;;;2.60;99.90;;;;;;5036904;28;20408;-62
2022/12/08 07:27:14;;;;;;;155.70;148.25;;;2.50;99.90;;;;;;5036269;28;20386;-62
2022/12/08 07:29:40;;;;;;;160.90;153.17;;;2.50;99.90;;;;;;5034933;28;20381;-63
2022/12/08 07:32:07;;;;;;;153.77;146.43;;;2.50;99.90;;;;;;5035136;28;20944;-63
2022/12/08 07:34:34;;;;;;;165.63;157.77;;;2.40;99.90;;;;;;5034716;28;20389;-63
2022/12/08 07:37:00;;;;;;;161.07;153.45;;;2.30;99.90;;;;;;5035472;28;20468;-63
2022/12/08 07:39:26;;;;;;;163.75;155.98;;;2.30;99.90;;;;;;5033217;28;20735;-62
2022/12/08 07:41:51;;;;;;;157.60;150.00;;;2.30;99.90;;;;;;5032632;28;20966;-63
2022/12/08 07:44:17;;;;;;;140.32;133.52;;;2.20;99.90;;;;;;5030484;28;20588;-63
2022/12/08 07:46:43;;;;;;;146.88;139.75;;;2.20;99.90;;;;;;5028398;28;20393;-63
2022/12/08 07:49:08;;;;;;;143.40;136.43;;;2.40;99.90;;;;;;5027370;28;20400;-63
2022/12/08 07:51:34;;;;;;;162.93;154.93;;;2.40;99.90;;;;;;5027501;28;20683;-63
2022/12/08 07:54:00;;;;;;;167.40;159.40;;;2.40;99.90;;;;;;5030280;28;20402;-63
2022/12/08 07:56:25;;;;;;;152.38;145.02;;;2.40;99.90;;;;;;5030502;28;20607;-63
2022/12/08 07:58:51;;;;;;;169.98;161.63;;;2.50;99.90;;;;;;5035664;28;20431;-63
2022/12/08 08:01:26;;;;;;;172.27;164.00;;;2.60;99.90;;;;;;5036219;28;20629;-63
2022/12/08 08:03:52;;;;;;;163.02;154.48;;;2.50;99.90;;;;;;5037496;28;20674;-62
2022/12/08 08:06:18;;;;;;;163.27;155.33;;;2.50;99.90;;;;;;5039073;28;20741;-62
2022/12/08 08:08:43;;;;;;;167.53;159.53;;;2.60;99.90;;;;;;5039770;28;20385;-62
2022/12/08 08:11:09;;;;;;;151.17;143.97;;;2.60;99.90;;;;;;5035807;28;20381;-60
2022/12/08 08:13:36;;;;;;;142.32;135.35;;;2.60;99.90;;;;;;5036505;28;20468;-62
2022/12/08 08:16:06;;;;;;;149.05;141.90;;;2.60;99.90;;;;;;5036007;28;20689;-62
2022/12/08 08:18:33;;;;;;;141.40;134.52;;;2.60;99.90;;;;;;5033392;28;20607;-63
2022/12/08 08:21:03;;;;;;;139.07;132.32;;;2.60;99.90;;;;;;5031032;28;20401;-62
2022/12/08 08:23:29;;;;;;;141.02;134.18;;;2.70;99.90;;;;;;5029909;28;20611;-62
2022/12/08 08:26:02;;;;;;;139.13;132.27;;;2.70;99.90;;;;;;5033141;28;20459;-62
2022/12/08 08:28:28;;;;;;;148.07;140.77;;;2.80;99.90;;;;;;5029032;28;20850;-63
2022/12/08 08:30:54;;;;;;;139.60;132.80;;;2.80;99.90;;;;;;5029152;28;20533;-63
2022/12/08 08:33:20;;;;;;;143.75;136.77;;;2.80;99.90;;;;;;5031819;28;20563;-63
2022/12/08 08:35:46;;;;;;;132.23;125.80;;;2.80;99.90;;;;;;5029843;28;20464;-62
2022/12/08 08:38:12;;;;;;;141.13;134.23;;;2.80;99.90;;;;;;5028552;28;20393;-62
2022/12/08 08:40:37;;;;;;;142.02;135.13;;;2.90;99.90;;;;;;5027633;28;20689;-62
2022/12/08 08:43:05;;;;;;;143.83;136.83;;;2.90;99.90;;;;;;5029807;28;20432;-62
2022/12/08 08:45:31;;;;;;;159.32;151.43;;;2.90;99.90;;;;;;5033488;28;20528;-62
2022/12/08 08:47:56;;;;;;;162.15;154.32;;;2.90;99.90;;;;;;5034829;28;20378;-63
2022/12/08 08:50:22;;;;;;;158.90;151.17;;;2.90;99.90;;;;;;5037117;28;20385;-62
2022/12/08 08:52:49;;;;;;;155.82;148.20;;;2.90;99.90;;;;;;5037409;28;20770;-62
2022/12/08 08:55:14;;;;;;;147.73;140.55;;;2.90;99.90;;;;;;5037920;28;20496;-63
2022/12/08 08:57:42;;;;;;;159.63;151.90;;;2.90;99.90;;;;;;5038050;28;20480;-62
2022/12/08 09:00:09;;;;;;;158.03;150.40;;;2.90;99.90;;;;;;5036111;28;20401;-62
2022/12/08 09:02:35;;;;;;;173.47;165.10;;;2.90;99.90;;;;;;5035678;28;20585;-62
2022/12/08 09:05:02;;;;;;;164.90;156.95;;;2.80;99.90;;;;;;5033777;28;20405;-63
2022/12/08 09:07:27;;;;;;;169.13;161.05;;;2.80;99.90;;;;;;5034270;28;20597;-62
2022/12/08 09:09:54;;;;;;;170.98;162.77;;;2.80;99.90;;;;;;5030482;28;20414;-62
2022/12/08 09:12:20;;;;;;;184.88;175.88;;;2.90;99.90;;;;;;5030002;28;20373;-62
2022/12/08 09:14:45;;;;;;;181.98;173.30;;;2.80;99.90;;;;;;5032116;28;20389;-63
2022/12/08 09:17:11;;;;;;;171.73;163.55;;;2.80;99.90;;;;;;5034984;28;20590;-63
2022/12/08 09:19:37;;;;;;;185.18;176.20;;;2.80;99.90;;;;;;5032828;28;20668;-63
2022/12/08 09:22:03;;;;;;;177.77;169.30;;;2.70;99.90;;;;;;5031832;28;20470;-62
2022/12/08 09:24:28;;;;;;;175.88;167.45;;;2.80;99.90;;;;;;5031456;28;20401;-63
2022/12/08 09:26:54;;;;;;;186.93;178.03;;;2.80;99.90;;;;;;5030797;28;20636;-62
2022/12/08 09:29:19;;;;;;;174.53;166.13;;;2.80;99.90;;;;;;5029229;28;20412;-62
2022/12/08 09:31:45;;;;;;;182.32;173.52;;;2.80;99.90;;;;;;5032238;28;20604;-62
2022/12/08 09:34:11;;;;;;;169.80;161.67;;;2.80;99.90;;;;;;5033320;28;20382;-62
2022/12/08 09:36:37;;;;;;;175.68;167.20;;;2.90;99.90;;;;;;5032976;28;20721;-62
2022/12/08 09:39:03;;;;;;;166.05;157.85;;;3.00;99.90;;;;;;5033511;28;20686;-62
2022/12/08 09:41:35;;;;;;;184.02;174.95;;;3.10;99.90;;;;;;5032573;28;20882;-63
2022/12/08 09:44:36;;;;;;;197.95;188.27;;;3.00;99.90;;;;;;5032355;28;20389;-63
2022/12/08 09:47:12;;;;;;;193.52;184.05;;;3.00;99.90;;;;;;5030556;28;20374;-62
2022/12/08 09:49:45;;;;;;;188.10;178.90;;;3.00;99.90;;;;;;5030981;28;20441;-62
2022/12/08 09:52:21;;;;;;;183.95;175.15;;;2.90;99.90;;;;;;5034992;28;20381;-63
2022/12/08 09:54:46;;;;;;;190.45;181.13;;;2.90;99.90;;;;;;5034510;28;20789;-63
2022/12/08 09:57:18;;;;;;;209.27;199.07;;;2.90;99.90;;;;;;5031886;28;20392;-63
2022/12/08 09:59:51;;;;;;;192.20;183.10;;;2.90;99.90;;;;;;5032719;28;20397;-62
2022/12/08 10:02:25;;;;;;;198.45;188.77;;;2.90;99.90;;;;;;5033940;28;20699;-63
2022/12/08 10:04:55;;;;;;;207.77;197.82;;;2.80;99.90;;;;;;5035163;28;20389;-62
2022/12/08 10:07:53;;;;;;;191.43;182.02;;;2.80;99.90;;;;;;5035015;28;20392;-63
2022/12/08 10:10:47;;;;;;;194.77;185.43;;;2.80;99.90;;;;;;5043791;28;20485;-62
2022/12/08 10:13:22;;;;;;;184.48;175.32;;;2.80;99.90;;;;;;5043518;28;20400;-63
2022/12/08 10:16:15;;;;;;;198.30;188.57;;;2.80;99.90;;;;;;5043193;28;20459;-62
2022/12/08 10:18:41;;;;;;;195.73;186.35;;;2.70;99.90;;;;;;5041390;28;20385;-62
2022/12/08 10:21:24;;;;;;;197.27;187.75;;;2.70;99.90;;;;;;5040551;28;20704;-62
2022/12/08 10:23:55;;;;;;;198.73;189.25;;;2.60;99.90;;;;;;5039935;28;20411;-62
2022/12/08 10:26:21;;;;;;;185.18;176.25;;;2.60;99.90;;;;;;5039947;28;20447;-63
2022/12/08 10:28:47;;;;;;;195.50;186.13;;;2.70;99.90;;;;;;5041486;28;20397;-64
2022/12/08 10:31:19;;;;;;;184.68;175.77;;;2.70;99.90;;;;;;5041452;28;20381;-63
2022/12/08 10:33:51;;;;;;;185.25;176.38;;;2.60;99.90;;;;;;5040745;28;20959;-63
2022/12/08 10:36:17;;;;;;;181.77;173.05;;;2.60;99.90;;;;;;5040539;28;20385;-63
2022/12/08 10:38:44;;;;;;;167.95;159.68;;;2.60;99.90;;;;;;5042743;28;20373;-55
2022/12/08 10:41:09;;;;;;;156.30;148.52;;;2.60;99.90;;;;;;5043514;28;20415;-58
2022/12/08 10:43:46;;;;;;;133.03;126.40;;;2.60;99.90;;;;;;5043161;28;20389;-62
2022/12/08 10:46:14;;;;;;;156.85;149.13;;;2.70;99.90;;;;;;5043661;28;20389;-63
2022/12/08 10:48:49;;;;;;;167.20;159.07;;;2.70;99.90;;;;;;5042033;28;20476;-60
2022/12/08 10:51:27;;;;;;;161.73;153.95;;;2.70;99.90;;;;;;5043754;28;20495;-63
2022/12/08 10:53:54;;;;;;;176.15;167.25;;;2.70;99.90;;;;;;5042911;28;20662;-62
2022/12/08 10:56:27;;;;;;;171.27;162.93;;;2.70;99.90;;;;;;5044351;28;20467;-63
2022/12/08 10:59:31;;;;;;;171.25;163.02;;;2.70;99.90;;;;;;5045632;28;20411;-63
2022/12/08 11:01:58;;;;;;;180.20;171.43;;;2.80;99.90;;;;;;5019121;28;20455;-62
2022/12/08 11:04:35;;;;;;;169.33;161.20;;;2.80;99.90;;;;;;4999727;28;20470;-62
2022/12/08 11:07:04;;;;;;;173.75;165.35;;;2.80;99.90;;;;;;5017035;28;20387;-63
2022/12/08 11:09:47;;;;;;;177.25;168.43;;;2.80;99.90;;;;;;5022460;28;20397;-64
2022/12/08 11:12:15;;;;;;;177.07;168.68;;;2.80;99.90;;;;;;5036866;28;20393;-64
2022/12/08 11:14:46;;;;;;;177.90;169.40;;;2.80;99.90;;;;;;5037008;28;20396;-63
2022/12/08 11:17:17;;;;;;;172.40;163.95;;;2.70;99.90;;;;;;5039065;28;20832;-62
2022/12/08 11:20:01;;;;;;;170.48;162.23;;;2.80;99.90;;;;;;5042315;28;20455;-62
2022/12/08 11:22:44;;;;;;;186.18;177.30;;;2.80;99.90;;;;;;5044141;28;20718;-62
2022/12/08 11:25:19;;;;;;;188.13;179.27;;;2.90;99.90;;;;;;5042062;28;20405;-63
2022/12/08 11:27:47;;;;;;;180.03;171.43;;;2.90;99.90;;;;;;5041755;28;20555;-62
2022/12/08 11:30:20;;;;;;;181.25;172.70;;;2.90;99.90;;;;;;5043403;28;21071;-63
2022/12/08 11:32:48;;;;;;;188.52;179.63;;;3.00;99.90;;;;;;5041624;28;20389;-63
2022/12/08 11:35:25;;;;;;;177.65;169.07;;;2.90;99.90;;;;;;5041859;28;20472;-63
2022/12/08 11:38:11;;;;;;;197.18;187.98;;;3.00;99.90;;;;;;5040142;28;20385;-62
2022/12/08 11:40:41;;;;;;;190.17;181.13;;;3.00;99.90;;;;;;5037508;28;20421;-62
2022/12/08 11:43:34;;;;;;;187.90;178.95;;;2.90;99.90;;;;;;5038890;28;20381;-63
2022/12/08 11:46:01;;;;;;;178.38;169.85;;;3.00;99.90;;;;;;5040342;28;20842;-62
2022/12/08 11:48:46;;;;;;;191.00;182.02;;;3.10;99.90;;;;;;5040294;28;20380;-62
2022/12/08 11:51:34;;;;;;;189.30;180.32;;;3.10;99.90;;;;;;5039908;28;20458;-62
2022/12/08 11:54:28;;;;;;;190.87;181.83;;;3.20;99.90;;;;;;5038282;28;20405;-62
2022/12/08 11:56:56;;;;;;;197.73;188.45;;;3.10;99.90;;;;;;5038702;28;20446;-63
2022/12/08 11:59:38;;;;;;;184.02;175.32;;;3.10;99.90;;;;;;5039106;28;20389;-62
2022/12/08 12:02:05;;;;;;;178.73;170.15;;;3.10;99.90;;;;;;5039247;28;20433;-63
2022/12/08 12:04:34;;;;;;;174.98;166.65;;;3.00;99.90;;;;;;5037950;28;20475;-63
2022/12/08 12:07:18;;;;;;;189.38;180.35;;;3.10;99.90;;;;;;5037411;28;20377;-62
2022/12/08 12:10:12;;;;;;;188.63;179.73;;;3.10;99.90;;;;;;5038272;28;20404;-62
2022/12/08 12:13:15;;;;;;;183.27;174.55;;;3.10;99.90;;;;;;5038494;28;20469;-62
2022/12/08 12:16:09;;;;;;;181.27;172.70;;;3.10;99.90;;;;;;5038815;28;20381;-62
2022/12/08 12:18:45;;;;;;;186.05;177.27;;;3.10;99.90;;;;;;5036992;28;20476;-62
2022/12/08 12:21:17;;;;;;;178.27;169.77;;;3.10;99.90;;;;;;5036825;28;20710;-62
2022/12/08 12:23:56;;;;;;;193.95;184.73;;;3.10;99.90;;;;;;5040746;28;20386;-62
2022/12/08 12:26:25;;;;;;;187.45;178.45;;;3.10;99.90;;;;;;5040824;28;20438;-62
2022/12/08 12:29:01;;;;;;;184.50;175.63;;;3.10;99.90;;;;;;5042130;28;20385;-63
2022/12/08 12:31:30;;;;;;;179.13;170.60;;;3.20;99.90;;;;;;5042528;28;20415;-61
2022/12/08 12:34:29;;;;;;;198.98;189.50;;;3.20;99.90;;;;;;5041684;28;20450;-62
2022/12/08 12:37:03;;;;;;;183.75;175.05;;;3.30;99.90;;;;;;5036132;28;20393;-61
2022/12/08 12:39:32;;;;;;;186.70;177.75;;;3.20;99.90;;;;;;5040225;28;20424;-62